AFR33FH LFLL-LFPG
Flight info
| Callsign | AFR33FH |
|---|---|
| Flight time | 0h 50m |
| Altitude | 30000 |
| Route | MOKIP DCT ARFOZ DCT TINIL |
| Aircraft | A320/M-SDE3FGHIRWY/LB1 |
Departure
| Time | 2026-05-04 13:53 |
|---|---|
| Airport | Lyon Saint-Exupéry Airport (LFLL) |
Arrival
| Time | 2026-05-04 14:43 |
|---|---|
| Airport | Charles de Gaulle International Airport (LFPG) |
| Time | Latitude | Longitude | Altitude | Speed | Heading |
|---|---|---|---|---|---|
| 2026-05-04 13:35 | 45.72109 | 5.08177 | 796 ft | 0 kts | 306° |
| 2026-05-04 13:40 | 45.72108 | 5.08177 | 796 ft | 0 kts | 306° |
| 2026-05-04 13:42 | 45.72107 | 5.08181 | 796 ft | 1 kts | 313° |
| 2026-05-04 13:42 | 45.72097 | 5.08190 | 796 ft | 1 kts | 310° |
| 2026-05-04 13:42 | 45.72090 | 5.08207 | 797 ft | 2 kts | 307° |
| 2026-05-04 13:42 | 45.72080 | 5.08224 | 797 ft | 2 kts | 312° |
| 2026-05-04 13:43 | 45.72069 | 5.08237 | 797 ft | 2 kts | 327° |
| 2026-05-04 13:43 | 45.72056 | 5.08247 | 798 ft | 2 kts | 341° |
| 2026-05-04 13:43 | 45.72042 | 5.08252 | 798 ft | 2 kts | 354° |
| 2026-05-04 13:43 | 45.72027 | 5.08252 | 798 ft | 2 kts | 7° |
| 2026-05-04 13:44 | 45.72018 | 5.08250 | 798 ft | 1 kts | 15° |
| 2026-05-04 13:44 | 45.72013 | 5.08248 | 798 ft | 0 kts | 16° |
| 2026-05-04 13:46 | 45.72016 | 5.08249 | 798 ft | 1 kts | 13° |
| 2026-05-04 13:46 | 45.72040 | 5.08257 | 798 ft | 5 kts | 14° |
| 2026-05-04 13:46 | 45.72086 | 5.08276 | 798 ft | 8 kts | 18° |
| 2026-05-04 13:46 | 45.72149 | 5.08306 | 797 ft | 10 kts | 15° |
| 2026-05-04 13:47 | 45.72230 | 5.08319 | 796 ft | 12 kts | 16° |
| 2026-05-04 13:47 | 45.72284 | 5.08406 | 796 ft | 11 kts | 32° |
| 2026-05-04 13:47 | 45.72372 | 5.08409 | 795 ft | 13 kts | 355° |
| 2026-05-04 13:47 | 45.72474 | 5.08399 | 794 ft | 15 kts | 355° |
| 2026-05-04 13:48 | 45.72587 | 5.08382 | 792 ft | 17 kts | 354° |
| 2026-05-04 13:48 | 45.72711 | 5.08366 | 790 ft | 18 kts | 355° |
| 2026-05-04 13:48 | 45.72844 | 5.08350 | 788 ft | 20 kts | 355° |
| 2026-05-04 13:48 | 45.72987 | 5.08336 | 786 ft | 21 kts | 356° |
| 2026-05-04 13:49 | 45.73136 | 5.08321 | 783 ft | 21 kts | 349° |
| 2026-05-04 13:49 | 45.73292 | 5.08296 | 780 ft | 23 kts | 355° |
| 2026-05-04 13:49 | 45.73454 | 5.08276 | 778 ft | 23 kts | 353° |
| 2026-05-04 13:49 | 45.73621 | 5.08257 | 775 ft | 24 kts | 356° |
| 2026-05-04 13:50 | 45.73790 | 5.08240 | 773 ft | 18 kts | 356° |
| 2026-05-04 13:50 | 45.73919 | 5.08225 | 771 ft | 19 kts | 353° |
| 2026-05-04 13:50 | 45.74054 | 5.08223 | 770 ft | 19 kts | 12° |
| 2026-05-04 13:50 | 45.74191 | 5.08271 | 769 ft | 20 kts | 15° |
| 2026-05-04 13:51 | 45.74292 | 5.08306 | 768 ft | 9 kts | 16° |
| 2026-05-04 13:51 | 45.74348 | 5.08371 | 767 ft | 11 kts | 66° |
| 2026-05-04 13:51 | 45.74359 | 5.08488 | 768 ft | 12 kts | 87° |
| 2026-05-04 13:51 | 45.74353 | 5.08603 | 768 ft | 11 kts | 126° |
| 2026-05-04 13:52 | 45.74271 | 5.08641 | 769 ft | 25 kts | 174° |
| 2026-05-04 13:52 | 45.73842 | 5.08697 | 775 ft | 95 kts | 175° |
| 2026-05-04 13:52 | 45.72974 | 5.08814 | 792 ft | 152 kts | 173° |
| 2026-05-04 13:53 | 45.71849 | 5.09016 | 1166 ft | 167 kts | 172° |
| 2026-05-04 13:53 | 45.70681 | 5.09244 | 1765 ft | 173 kts | 174° |
| 2026-05-04 13:53 | 45.69527 | 5.09354 | 2642 ft | 163 kts | 175° |
| 2026-05-04 13:54 | 45.67139 | 5.09556 | 3446 ft | 187 kts | 169° |
| 2026-05-04 13:54 | 45.65979 | 5.10448 | 3775 ft | 204 kts | 132° |
| 2026-05-04 13:54 | 45.65794 | 5.14510 | 5019 ft | 233 kts | 59° |
| 2026-05-04 13:55 | 45.67055 | 5.15967 | 5708 ft | 244 kts | 25° |
| 2026-05-04 13:55 | 45.70377 | 5.17581 | 6927 ft | 262 kts | 20° |
| 2026-05-04 13:55 | 45.72119 | 5.18405 | 7679 ft | 264 kts | 19° |
| 2026-05-04 13:56 | 45.73848 | 5.19250 | 8428 ft | 267 kts | 17° |
| 2026-05-04 13:56 | 45.75654 | 5.19627 | 9147 ft | 266 kts | 346° |
| 2026-05-04 13:56 | 45.78979 | 5.17229 | 10165 ft | 283 kts | 320° |
| 2026-05-04 13:57 | 45.80672 | 5.15632 | 10569 ft | 301 kts | 322° |
| 2026-05-04 13:57 | 45.82502 | 5.13980 | 10948 ft | 320 kts | 323° |
| 2026-05-04 13:58 | 45.88702 | 5.08729 | 12139 ft | 363 kts | 326° |
| 2026-05-04 13:58 | 45.93338 | 5.05743 | 13506 ft | 375 kts | 342° |
| 2026-05-04 13:58 | 45.95913 | 5.05047 | 14143 ft | 381 kts | 349° |
| 2026-05-04 13:59 | 45.98555 | 5.04565 | 14771 ft | 385 kts | 351° |
| 2026-05-04 13:59 | 46.01226 | 5.04115 | 15359 ft | 390 kts | 351° |
| 2026-05-04 13:59 | 46.06664 | 5.03177 | 16494 ft | 398 kts | 350° |
| 2026-05-04 14:00 | 46.09397 | 5.02690 | 17040 ft | 402 kts | 350° |
| 2026-05-04 14:00 | 46.15029 | 5.01667 | 18103 ft | 408 kts | 350° |
| 2026-05-04 14:00 | 46.17817 | 5.01159 | 18624 ft | 411 kts | 350° |
| 2026-05-04 14:01 | 46.20664 | 5.00637 | 19087 ft | 415 kts | 350° |
| 2026-05-04 14:01 | 46.23522 | 5.00111 | 19551 ft | 418 kts | 351° |
| 2026-05-04 14:01 | 46.29350 | 4.99073 | 20487 ft | 426 kts | 353° |
| 2026-05-04 14:02 | 46.32332 | 4.99286 | 20850 ft | 434 kts | 11° |
| 2026-05-04 14:02 | 46.35207 | 5.00719 | 21281 ft | 438 kts | 28° |
| 2026-05-04 14:02 | 46.37851 | 5.02930 | 21760 ft | 439 kts | 33° |
| 2026-05-04 14:02 | 46.40414 | 5.05270 | 22176 ft | 442 kts | 33° |
| 2026-05-04 14:03 | 46.43087 | 5.07538 | 22580 ft | 447 kts | 25° |
| 2026-05-04 14:03 | 46.46006 | 5.08990 | 22965 ft | 450 kts | 12° |
| 2026-05-04 14:03 | 46.49128 | 5.09514 | 23366 ft | 451 kts | 0° |
| 2026-05-04 14:03 | 46.52282 | 5.09537 | 23775 ft | 454 kts | 358° |
| 2026-05-04 14:04 | 46.58604 | 5.09428 | 24582 ft | 458 kts | 358° |
| 2026-05-04 14:04 | 46.61800 | 5.09407 | 24958 ft | 461 kts | 359° |
| 2026-05-04 14:04 | 46.64994 | 5.09406 | 25330 ft | 464 kts | 359° |
| 2026-05-04 14:05 | 46.71512 | 5.09429 | 26028 ft | 470 kts | 359° |
| 2026-05-04 14:05 | 46.74768 | 5.09445 | 26377 ft | 472 kts | 359° |
| 2026-05-04 14:05 | 46.78059 | 5.09460 | 26714 ft | 475 kts | 359° |
| 2026-05-04 14:06 | 46.81368 | 5.09469 | 27007 ft | 479 kts | 359° |
| 2026-05-04 14:06 | 46.84708 | 5.09479 | 27326 ft | 481 kts | 359° |
| 2026-05-04 14:06 | 46.88057 | 5.09492 | 27620 ft | 484 kts | 359° |
| 2026-05-04 14:06 | 46.91387 | 5.09506 | 28008 ft | 484 kts | 359° |
| 2026-05-04 14:07 | 46.94758 | 5.09524 | 28445 ft | 484 kts | 359° |
| 2026-05-04 14:07 | 46.98140 | 5.09541 | 28827 ft | 484 kts | 359° |
| 2026-05-04 14:07 | 47.01498 | 5.09553 | 29142 ft | 486 kts | 360° |
| 2026-05-04 14:07 | 47.04911 | 5.09568 | 29408 ft | 489 kts | 360° |
| 2026-05-04 14:08 | 47.08303 | 5.09583 | 29716 ft | 491 kts | 359° |
| 2026-05-04 14:08 | 47.11730 | 5.09598 | 29975 ft | 492 kts | 360° |
| 2026-05-04 14:08 | 47.15189 | 5.09613 | 29991 ft | 492 kts | 360° |
| 2026-05-04 14:09 | 47.25450 | 5.09664 | 30002 ft | 493 kts | 359° |
| 2026-05-04 14:10 | 47.35692 | 5.09714 | 29998 ft | 493 kts | 360° |
| 2026-05-04 14:10 | 47.42543 | 5.09747 | 29990 ft | 494 kts | 359° |
| 2026-05-04 14:11 | 47.49421 | 5.09781 | 29983 ft | 492 kts | 359° |
| 2026-05-04 14:11 | 47.56210 | 5.09206 | 29971 ft | 489 kts | 344° |
| 2026-05-04 14:11 | 47.59383 | 5.07589 | 29976 ft | 484 kts | 331° |
| 2026-05-04 14:12 | 47.62231 | 5.05019 | 29976 ft | 478 kts | 317° |
| 2026-05-04 14:12 | 47.64677 | 5.01746 | 29981 ft | 474 kts | 310° |
| 2026-05-04 14:13 | 47.71627 | 4.91319 | 29971 ft | 475 kts | 310° |
| 2026-05-04 14:13 | 47.76271 | 4.84405 | 29969 ft | 475 kts | 310° |
| 2026-05-04 14:14 | 47.80951 | 4.77482 | 29963 ft | 475 kts | 311° |
| 2026-05-04 14:14 | 47.87960 | 4.67111 | 29952 ft | 475 kts | 311° |
| 2026-05-04 14:15 | 47.97272 | 4.53274 | 29947 ft | 474 kts | 311° |
| 2026-05-04 14:16 | 48.04256 | 4.42848 | 29708 ft | 477 kts | 311° |
| 2026-05-04 14:17 | 48.08946 | 4.35818 | 28042 ft | 477 kts | 311° |
| 2026-05-04 14:17 | 48.11263 | 4.32343 | 27268 ft | 474 kts | 310° |
| 2026-05-04 14:17 | 48.15845 | 4.25459 | 26232 ft | 456 kts | 310° |
| 2026-05-04 14:18 | 48.18053 | 4.22135 | 25742 ft | 448 kts | 310° |
| 2026-05-04 14:18 | 48.22360 | 4.15630 | 24743 ft | 434 kts | 310° |
| 2026-05-04 14:19 | 48.26516 | 4.09338 | 23756 ft | 422 kts | 310° |
| 2026-05-04 14:19 | 48.28572 | 4.06218 | 23266 ft | 417 kts | 310° |
| 2026-05-04 14:19 | 48.30580 | 4.03170 | 22785 ft | 412 kts | 311° |
| 2026-05-04 14:19 | 48.32590 | 4.00113 | 22297 ft | 407 kts | 310° |
| 2026-05-04 14:20 | 48.34567 | 3.97103 | 21811 ft | 403 kts | 311° |
| 2026-05-04 14:20 | 48.36515 | 3.94131 | 21333 ft | 399 kts | 311° |
| 2026-05-04 14:20 | 48.38463 | 3.91160 | 20850 ft | 396 kts | 311° |
| 2026-05-04 14:21 | 48.42275 | 3.85333 | 19885 ft | 390 kts | 311° |
| 2026-05-04 14:21 | 48.44167 | 3.82437 | 19405 ft | 388 kts | 311° |
| 2026-05-04 14:21 | 48.46048 | 3.79551 | 18910 ft | 385 kts | 312° |
| 2026-05-04 14:21 | 48.47925 | 3.76671 | 18417 ft | 382 kts | 312° |
| 2026-05-04 14:22 | 48.49764 | 3.73847 | 17935 ft | 380 kts | 312° |
| 2026-05-04 14:22 | 48.51613 | 3.71006 | 17449 ft | 378 kts | 312° |
| 2026-05-04 14:22 | 48.53431 | 3.68209 | 16966 ft | 376 kts | 313° |
| 2026-05-04 14:22 | 48.55254 | 3.65397 | 16476 ft | 374 kts | 313° |
| 2026-05-04 14:23 | 48.58859 | 3.59832 | 15507 ft | 370 kts | 313° |
| 2026-05-04 14:23 | 48.60572 | 3.56982 | 15021 ft | 367 kts | 308° |
| 2026-05-04 14:23 | 48.62114 | 3.53950 | 14729 ft | 361 kts | 304° |
| 2026-05-04 14:24 | 48.63509 | 3.50798 | 14753 ft | 364 kts | 302° |
| 2026-05-04 14:24 | 48.64887 | 3.47587 | 14776 ft | 365 kts | 301° |
| 2026-05-04 14:24 | 48.66262 | 3.44355 | 14800 ft | 367 kts | 301° |
| 2026-05-04 14:24 | 48.67636 | 3.41123 | 14820 ft | 367 kts | 302° |
| 2026-05-04 14:25 | 48.69029 | 3.37843 | 14840 ft | 367 kts | 301° |
| 2026-05-04 14:25 | 48.71817 | 3.31282 | 14891 ft | 371 kts | 301° |
| 2026-05-04 14:25 | 48.73193 | 3.28043 | 14907 ft | 371 kts | 302° |
| 2026-05-04 14:26 | 48.74601 | 3.24702 | 14917 ft | 373 kts | 302° |
| 2026-05-04 14:26 | 48.75985 | 3.21433 | 14922 ft | 371 kts | 303° |
| 2026-05-04 14:26 | 48.77377 | 3.18153 | 14926 ft | 370 kts | 303° |
| 2026-05-04 14:26 | 48.78764 | 3.14877 | 14922 ft | 369 kts | 303° |
| 2026-05-04 14:27 | 48.80150 | 3.11604 | 14926 ft | 368 kts | 303° |
| 2026-05-04 14:27 | 48.81516 | 3.08365 | 14926 ft | 368 kts | 303° |
| 2026-05-04 14:27 | 48.82898 | 3.05089 | 14923 ft | 368 kts | 303° |
| 2026-05-04 14:27 | 48.84360 | 3.01902 | 14928 ft | 369 kts | 308° |
| 2026-05-04 14:28 | 48.85969 | 2.98867 | 14924 ft | 368 kts | 311° |
| 2026-05-04 14:28 | 48.87669 | 2.95997 | 14925 ft | 368 kts | 313° |
| 2026-05-04 14:28 | 48.89410 | 2.93123 | 14923 ft | 368 kts | 313° |
| 2026-05-04 14:28 | 48.91142 | 2.90267 | 14920 ft | 368 kts | 313° |
| 2026-05-04 14:29 | 48.93550 | 2.83526 | 14922 ft | 372 kts | 278° |
| 2026-05-04 14:29 | 48.93307 | 2.75674 | 14904 ft | 374 kts | 265° |
| 2026-05-04 14:30 | 48.93064 | 2.71759 | 14366 ft | 376 kts | 265° |
| 2026-05-04 14:30 | 48.92831 | 2.67844 | 13774 ft | 376 kts | 266° |
| 2026-05-04 14:30 | 48.92395 | 2.59981 | 12709 ft | 372 kts | 266° |
| 2026-05-04 14:31 | 48.92181 | 2.56049 | 12200 ft | 368 kts | 266° |
| 2026-05-04 14:31 | 48.91762 | 2.48430 | 11215 ft | 361 kts | 266° |
| 2026-05-04 14:32 | 48.91349 | 2.40926 | 10481 ft | 345 kts | 266° |
| 2026-05-04 14:32 | 48.91149 | 2.37381 | 10336 ft | 331 kts | 266° |
| 2026-05-04 14:32 | 48.90957 | 2.33967 | 10186 ft | 318 kts | 265° |
| 2026-05-04 14:32 | 48.90773 | 2.30695 | 10045 ft | 306 kts | 265° |
| 2026-05-04 14:33 | 48.90593 | 2.27517 | 9901 ft | 295 kts | 265° |
| 2026-05-04 14:33 | 48.90418 | 2.24432 | 9537 ft | 293 kts | 265° |
| 2026-05-04 14:33 | 48.90241 | 2.21357 | 9178 ft | 291 kts | 265° |
| 2026-05-04 14:33 | 48.90066 | 2.18329 | 8831 ft | 289 kts | 265° |
| 2026-05-04 14:34 | 48.89891 | 2.15309 | 8489 ft | 287 kts | 265° |
| 2026-05-04 14:34 | 48.89718 | 2.12312 | 8144 ft | 285 kts | 266° |
| 2026-05-04 14:34 | 48.89788 | 2.09343 | 7932 ft | 282 kts | 289° |
| 2026-05-04 14:34 | 48.90812 | 2.06868 | 7898 ft | 277 kts | 321° |
| 2026-05-04 14:35 | 48.92482 | 2.05611 | 7416 ft | 269 kts | 353° |
| 2026-05-04 14:35 | 48.94294 | 2.05912 | 6641 ft | 268 kts | 24° |
| 2026-05-04 14:35 | 48.95819 | 2.07488 | 5909 ft | 267 kts | 50° |
| 2026-05-04 14:35 | 48.96669 | 2.09934 | 5290 ft | 266 kts | 76° |
| 2026-05-04 14:36 | 48.96971 | 2.12686 | 4982 ft | 260 kts | 82° |
| 2026-05-04 14:36 | 48.97176 | 2.15335 | 4935 ft | 246 kts | 84° |
| 2026-05-04 14:36 | 48.97331 | 2.17824 | 4929 ft | 231 kts | 84° |
| 2026-05-04 14:36 | 48.97459 | 2.20213 | 4866 ft | 219 kts | 85° |
| 2026-05-04 14:37 | 48.97572 | 2.22498 | 4623 ft | 214 kts | 85° |
| 2026-05-04 14:37 | 48.97677 | 2.24692 | 4334 ft | 202 kts | 85° |
| 2026-05-04 14:37 | 48.97775 | 2.26770 | 4164 ft | 188 kts | 85° |
| 2026-05-04 14:37 | 48.97866 | 2.28678 | 3927 ft | 174 kts | 85° |
| 2026-05-04 14:38 | 48.97952 | 2.30441 | 3674 ft | 161 kts | 85° |
| 2026-05-04 14:38 | 48.98032 | 2.32062 | 3430 ft | 148 kts | 85° |
| 2026-05-04 14:38 | 48.98106 | 2.33556 | 3209 ft | 140 kts | 85° |
| 2026-05-04 14:38 | 48.98179 | 2.35018 | 3031 ft | 139 kts | 85° |
| 2026-05-04 14:39 | 48.98253 | 2.36491 | 2856 ft | 138 kts | 85° |
| 2026-05-04 14:39 | 48.98326 | 2.37929 | 2689 ft | 138 kts | 85° |
| 2026-05-04 14:39 | 48.98399 | 2.39382 | 2519 ft | 138 kts | 85° |
| 2026-05-04 14:40 | 48.98547 | 2.42285 | 2172 ft | 137 kts | 85° |
| 2026-05-04 14:40 | 48.98621 | 2.43728 | 1994 ft | 137 kts | 85° |
| 2026-05-04 14:40 | 48.98696 | 2.45166 | 1810 ft | 136 kts | 85° |
| 2026-05-04 14:40 | 48.98770 | 2.46594 | 1625 ft | 136 kts | 85° |
| 2026-05-04 14:41 | 48.98844 | 2.48028 | 1442 ft | 135 kts | 85° |
| 2026-05-04 14:41 | 48.98919 | 2.49452 | 1263 ft | 135 kts | 85° |
| 2026-05-04 14:41 | 48.99068 | 2.52296 | 902 ft | 134 kts | 84° |
| 2026-05-04 14:42 | 48.99219 | 2.55113 | 534 ft | 134 kts | 84° |
| 2026-05-04 14:42 | 48.99295 | 2.56531 | 369 ft | 133 kts | 84° |
| 2026-05-04 14:42 | 48.99356 | 2.57827 | 341 ft | 101 kts | 85° |
| 2026-05-04 14:43 | 48.99404 | 2.58630 | 330 ft | 55 kts | 84° |
| 2026-05-04 14:43 | 48.99441 | 2.59115 | 325 ft | 33 kts | 78° |
| 2026-05-04 14:43 | 48.99509 | 2.59389 | 324 ft | 24 kts | 65° |
| 2026-05-04 14:43 | 48.99578 | 2.59612 | 324 ft | 10 kts | 62° |
| 2026-05-04 14:44 | 48.99582 | 2.59624 | 324 ft | 2 kts | 59° |
| 2026-05-04 14:44 | 48.99614 | 2.59680 | 325 ft | 11 kts | 30° |
| 2026-05-04 14:44 | 48.99684 | 2.59692 | 325 ft | 2 kts | 355° |
| 2026-05-04 14:44 | 48.99685 | 2.59692 | 325 ft | 0 kts | 355° |
| 2026-05-04 14:45 | 48.99701 | 2.59689 | 326 ft | 6 kts | 355° |
| 2026-05-04 14:45 | 48.99773 | 2.59679 | 327 ft | 14 kts | 353° |
| 2026-05-04 14:45 | 48.99900 | 2.59662 | 328 ft | 20 kts | 355° |
| 2026-05-04 14:45 | 49.00031 | 2.59646 | 331 ft | 17 kts | 355° |
| 2026-05-04 14:46 | 49.00150 | 2.59634 | 333 ft | 17 kts | 355° |
| 2026-05-04 14:46 | 49.00268 | 2.59619 | 335 ft | 16 kts | 355° |
| 2026-05-04 14:46 | 49.00380 | 2.59607 | 336 ft | 16 kts | 355° |
| 2026-05-04 14:46 | 49.00491 | 2.59595 | 337 ft | 16 kts | 355° |
| 2026-05-04 14:47 | 49.00602 | 2.59582 | 338 ft | 15 kts | 352° |
| 2026-05-04 14:47 | 49.00709 | 2.59562 | 339 ft | 15 kts | 355° |
| 2026-05-04 14:47 | 49.00816 | 2.59550 | 340 ft | 15 kts | 356° |
| 2026-05-04 14:47 | 49.00889 | 2.59468 | 341 ft | 14 kts | 273° |
| 2026-05-04 14:48 | 49.00882 | 2.59310 | 341 ft | 15 kts | 265° |
| 2026-05-04 14:48 | 49.00874 | 2.59150 | 342 ft | 15 kts | 265° |
| 2026-05-04 14:48 | 49.00865 | 2.58985 | 342 ft | 15 kts | 264° |
| 2026-05-04 14:48 | 49.00855 | 2.58815 | 343 ft | 16 kts | 265° |
| 2026-05-04 14:49 | 49.00800 | 2.58697 | 343 ft | 14 kts | 198° |
| 2026-05-04 14:49 | 49.00717 | 2.58692 | 343 ft | 7 kts | 189° |
| 2026-05-04 14:49 | 49.00693 | 2.58619 | 343 ft | 8 kts | 264° |
| 2026-05-04 14:49 | 49.00690 | 2.58563 | 343 ft | 3 kts | 263° |
| 2026-05-04 14:50 | 49.00689 | 2.58549 | 344 ft | 0 kts | 264° |